sensor_id;sensor_type;location;lat;lon;timestamp;pressure;altitude;pressure_sealevel;temperature;humidity
51460;BME280;37534;39.772;2.718;2022-09-17T00:01:47;100890.75;;;22.66;100.00
51460;BME280;37534;39.772;2.718;2022-09-17T00:04:12;100856.97;;;22.48;100.00
51460;BME280;37534;39.772;2.718;2022-09-17T00:06:38;100872.91;;;22.58;100.00
51460;BME280;37534;39.772;2.718;2022-09-17T00:09:05;100883.78;;;22.65;100.00
51460;BME280;37534;39.772;2.718;2022-09-17T00:11:34;100881.16;;;22.65;100.00
51460;BME280;37534;39.772;2.718;2022-09-17T00:14:01;100880.66;;;22.59;100.00
51460;BME280;37534;39.772;2.718;2022-09-17T00:16:30;100884.88;;;22.62;100.00
51460;BME280;37534;39.772;2.718;2022-09-17T00:18:56;100885.00;;;22.61;100.00
51460;BME280;37534;39.772;2.718;2022-09-17T00:21:23;100882.56;;;22.57;100.00
51460;BME280;37534;39.772;2.718;2022-09-17T00:23:56;100874.91;;;22.54;100.00
51460;BME280;37534;39.772;2.718;2022-09-17T00:26:21;100862.34;;;22.47;100.00
51460;BME280;37534;39.772;2.718;2022-09-17T00:28:51;100865.44;;;22.76;100.00
51460;BME280;37534;39.772;2.718;2022-09-17T00:31:18;100860.91;;;22.78;100.00
51460;BME280;37534;39.772;2.718;2022-09-17T00:33:43;100850.81;;;22.61;100.00
51460;BME280;37534;39.772;2.718;2022-09-17T00:36:09;100854.22;;;22.50;100.00
51460;BME280;37534;39.772;2.718;2022-09-17T00:38:34;100831.59;;;22.36;100.00
51460;BME280;37534;39.772;2.718;2022-09-17T00:41:01;100836.63;;;22.39;100.00
51460;BME280;37534;39.772;2.718;2022-09-17T00:43:51;100834.22;;;22.36;100.00
51460;BME280;37534;39.772;2.718;2022-09-17T00:48:45;100826.56;;;22.33;100.00
51460;BME280;37534;39.772;2.718;2022-09-17T00:51:14;100811.28;;;22.38;100.00
51460;BME280;37534;39.772;2.718;2022-09-17T00:53:42;100826.63;;;22.55;100.00
51460;BME280;37534;39.772;2.718;2022-09-17T00:56:38;100820.13;;;22.37;100.00
51460;BME280;37534;39.772;2.718;2022-09-17T00:59:05;100814.16;;;22.35;100.00
51460;BME280;37534;39.772;2.718;2022-09-17T01:01:31;100805.53;;;22.33;100.00
51460;BME280;37534;39.772;2.718;2022-09-17T01:03:57;100800.91;;;22.24;100.00
51460;BME280;37534;39.772;2.718;2022-09-17T01:07:00;100809.44;;;22.27;100.00
51460;BME280;37534;39.772;2.718;2022-09-17T01:28:11;100815.19;;;22.56;100.00
51460;BME280;37534;39.772;2.718;2022-09-17T01:33:38;100811.28;;;22.38;100.00
51460;BME280;37534;39.772;2.718;2022-09-17T01:38:36;100810.13;;;22.42;100.00
51460;BME280;37534;39.772;2.718;2022-09-17T01:41:30;100807.97;;;22.47;100.00
51460;BME280;37534;39.772;2.718;2022-09-17T01:46:49;100804.16;;;22.51;100.00
51460;BME280;37534;39.772;2.718;2022-09-17T01:49:17;100811.09;;;22.52;100.00
51460;BME280;37534;39.772;2.718;2022-09-17T01:51:47;100796.84;;;22.44;100.00
51460;BME280;37534;39.772;2.718;2022-09-17T01:56:56;100804.91;;;22.65;100.00
51460;BME280;37534;39.772;2.718;2022-09-17T01:59:29;100790.84;;;22.77;100.00
51460;BME280;37534;39.772;2.718;2022-09-17T02:02:07;100771.59;;;22.76;100.00
51460;BME280;37534;39.772;2.718;2022-09-17T02:04:40;100777.66;;;22.66;100.00
51460;BME280;37534;39.772;2.718;2022-09-17T02:07:15;100769.63;;;22.56;100.00
51460;BME280;37534;39.772;2.718;2022-09-17T02:10:21;100775.00;;;22.54;100.00
51460;BME280;37534;39.772;2.718;2022-09-17T02:12:45;100782.88;;;22.54;100.00
51460;BME280;37534;39.772;2.718;2022-09-17T02:15:19;100768.09;;;22.65;100.00
51460;BME280;37534;39.772;2.718;2022-09-17T02:17:51;100768.56;;;22.58;100.00
51460;BME280;37534;39.772;2.718;2022-09-17T02:20:25;100771.09;;;22.60;100.00
51460;BME280;37534;39.772;2.718;2022-09-17T02:22:58;100760.97;;;22.78;100.00
51460;BME280;37534;39.772;2.718;2022-09-17T02:25:38;100772.44;;;22.88;100.00
51460;BME280;37534;39.772;2.718;2022-09-17T02:28:20;100781.03;;;22.79;100.00
51460;BME280;37534;39.772;2.718;2022-09-17T02:30:50;100773.13;;;22.68;100.00
51460;BME280;37534;39.772;2.718;2022-09-17T02:33:17;100763.56;;;22.67;100.00
51460;BME280;37534;39.772;2.718;2022-09-17T02:35:43;100748.97;;;22.74;100.00
51460;BME280;37534;39.772;2.718;2022-09-17T02:38:09;100746.00;;;22.90;100.00
51460;BME280;37534;39.772;2.718;2022-09-17T02:40:43;100749.84;;;22.86;100.00
51460;BME280;37534;39.772;2.718;2022-09-17T02:43:27;100762.66;;;22.90;100.00
51460;BME280;37534;39.772;2.718;2022-09-17T02:50:11;100805.03;;;23.10;100.00
51460;BME280;37534;39.772;2.718;2022-09-17T02:55:00;100818.81;;;22.89;100.00
51460;BME280;37534;39.772;2.718;2022-09-17T02:57:36;100807.72;;;22.86;100.00
51460;BME280;37534;39.772;2.718;2022-09-17T03:00:14;100827.81;;;22.98;100.00
51460;BME280;37534;39.772;2.718;2022-09-17T03:05:27;100835.38;;;23.03;100.00
51460;BME280;37534;39.772;2.718;2022-09-17T03:07:54;100831.75;;;23.04;100.00
51460;BME280;37534;39.772;2.718;2022-09-17T03:10:21;100831.88;;;23.02;100.00
51460;BME280;37534;39.772;2.718;2022-09-17T03:12:47;100816.69;;;22.94;100.00
51460;BME280;37534;39.772;2.718;2022-09-17T03:15:12;100830.13;;;23.14;100.00
51460;BME280;37534;39.772;2.718;2022-09-17T03:17:38;100820.56;;;23.13;100.00
51460;BME280;37534;39.772;2.718;2022-09-17T03:20:04;100829.19;;;23.15;100.00
51460;BME280;37534;39.772;2.718;2022-09-17T03:22:30;100821.66;;;23.33;100.00
51460;BME280;37534;39.772;2.718;2022-09-17T03:24:55;100815.44;;;23.45;100.00
51460;BME280;37534;39.772;2.718;2022-09-17T03:27:21;100826.56;;;23.49;100.00
51460;BME280;37534;39.772;2.718;2022-09-17T03:29:47;100826.31;;;23.63;100.00
51460;BME280;37534;39.772;2.718;2022-09-17T03:32:12;100823.66;;;23.75;100.00
51460;BME280;37534;39.772;2.718;2022-09-17T03:34:38;100812.16;;;23.87;100.00
51460;BME280;37534;39.772;2.718;2022-09-17T03:37:04;100808.06;;;23.94;100.00
51460;BME280;37534;39.772;2.718;2022-09-17T03:39:29;100821.06;;;24.07;100.00
51460;BME280;37534;39.772;2.718;2022-09-17T03:41:55;100817.72;;;24.05;100.00
51460;BME280;37534;39.772;2.718;2022-09-17T03:44:20;100820.81;;;24.10;100.00
51460;BME280;37534;39.772;2.718;2022-09-17T03:46:48;100808.66;;;23.98;100.00
51460;BME280;37534;39.772;2.718;2022-09-17T03:49:14;100813.44;;;23.92;100.00
51460;BME280;37534;39.772;2.718;2022-09-17T03:51:39;100805.06;;;23.87;100.00
51460;BME280;37534;39.772;2.718;2022-09-17T03:54:05;100816.69;;;23.96;100.00
51460;BME280;37534;39.772;2.718;2022-09-17T03:56:31;100805.53;;;24.04;100.00
51460;BME280;37534;39.772;2.718;2022-09-17T03:59:00;100800.50;;;24.01;100.00
51460;BME280;37534;39.772;2.718;2022-09-17T04:01:27;100810.09;;;23.90;100.00
51460;BME280;37534;39.772;2.718;2022-09-17T04:03:52;100808.09;;;23.83;100.00
51460;BME280;37534;39.772;2.718;2022-09-17T04:06:18;100817.66;;;23.72;100.00
51460;BME280;37534;39.772;2.718;2022-09-17T04:08:44;100804.75;;;23.58;100.00
51460;BME280;37534;39.772;2.718;2022-09-17T04:11:09;100814.56;;;23.67;100.00
51460;BME280;37534;39.772;2.718;2022-09-17T04:13:35;100811.44;;;23.62;100.00
51460;BME280;37534;39.772;2.718;2022-09-17T04:16:01;100810.97;;;23.68;100.00
51460;BME280;37534;39.772;2.718;2022-09-17T04:18:27;100812.63;;;23.69;100.00
51460;BME280;37534;39.772;2.718;2022-09-17T04:20:52;100810.50;;;23.52;100.00
51460;BME280;37534;39.772;2.718;2022-09-17T04:23:18;100820.09;;;23.53;100.00
51460;BME280;37534;39.772;2.718;2022-09-17T04:25:43;100809.81;;;23.39;100.00
51460;BME280;37534;39.772;2.718;2022-09-17T04:28:09;100818.66;;;23.38;100.00
51460;BME280;37534;39.772;2.718;2022-09-17T04:30:35;100816.72;;;23.40;100.00
51460;BME280;37534;39.772;2.718;2022-09-17T04:33:00;100814.34;;;23.37;100.00
51460;BME280;37534;39.772;2.718;2022-09-17T04:35:26;100810.66;;;23.28;100.00
51460;BME280;37534;39.772;2.718;2022-09-17T04:37:53;100821.53;;;23.23;100.00
51460;BME280;37534;39.772;2.718;2022-09-17T04:40:19;100819.00;;;23.22;100.00
51460;BME280;37534;39.772;2.718;2022-09-17T04:42:45;100825.84;;;23.24;100.00
51460;BME280;37534;39.772;2.718;2022-09-17T04:45:10;100825.81;;;23.13;100.00
51460;BME280;37534;39.772;2.718;2022-09-17T04:47:39;100826.75;;;23.01;100.00
51460;BME280;37534;39.772;2.718;2022-09-17T04:50:05;100834.00;;;22.86;100.00
51460;BME280;37534;39.772;2.718;2022-09-17T04:52:31;100833.63;;;22.79;100.00
51460;BME280;37534;39.772;2.718;2022-09-17T04:54:57;100834.72;;;22.76;100.00
51460;BME280;37534;39.772;2.718;2022-09-17T04:57:23;100840.81;;;22.77;100.00
51460;BME280;37534;39.772;2.718;2022-09-17T04:59:50;100840.31;;;22.72;100.00
51460;BME280;37534;39.772;2.718;2022-09-17T05:02:16;100835.63;;;22.64;100.00
51460;BME280;37534;39.772;2.718;2022-09-17T05:04:41;100852.25;;;22.65;100.00
51460;BME280;37534;39.772;2.718;2022-09-17T05:07:07;100854.16;;;22.63;100.00
51460;BME280;37534;39.772;2.718;2022-09-17T05:09:33;100839.78;;;22.55;100.00
51460;BME280;37534;39.772;2.718;2022-09-17T05:11:58;100857.75;;;22.62;100.00
51460;BME280;37534;39.772;2.718;2022-09-17T05:14:24;100852.50;;;22.62;100.00
51460;BME280;37534;39.772;2.718;2022-09-17T05:16:49;100853.44;;;22.61;100.00
51460;BME280;37534;39.772;2.718;2022-09-17T05:19:15;100855.84;;;22.64;100.00
51460;BME280;37534;39.772;2.718;2022-09-17T05:21:40;100849.97;;;22.60;100.00
51460;BME280;37534;39.772;2.718;2022-09-17T05:24:06;100848.16;;;22.49;100.00
51460;BME280;37534;39.772;2.718;2022-09-17T05:26:31;100857.53;;;22.40;100.00
51460;BME280;37534;39.772;2.718;2022-09-17T05:28:57;100853.44;;;22.36;100.00
51460;BME280;37534;39.772;2.718;2022-09-17T05:31:23;100857.47;;;22.29;100.00
51460;BME280;37534;39.772;2.718;2022-09-17T05:33:48;100861.47;;;22.22;100.00
51460;BME280;37534;39.772;2.718;2022-09-17T05:36:14;100857.50;;;22.16;100.00
51460;BME280;37534;39.772;2.718;2022-09-17T05:38:39;100845.34;;;22.15;100.00
51460;BME280;37534;39.772;2.718;2022-09-17T05:41:06;100861.19;;;22.27;100.00
51460;BME280;37534;39.772;2.718;2022-09-17T05:43:32;100856.22;;;22.22;100.00
51460;BME280;37534;39.772;2.718;2022-09-17T05:46:04;100866.94;;;22.32;100.00
51460;BME280;37534;39.772;2.718;2022-09-17T05:48:30;100864.31;;;22.32;100.00
51460;BME280;37534;39.772;2.718;2022-09-17T05:50:56;100862.53;;;22.19;100.00
51460;BME280;37534;39.772;2.718;2022-09-17T05:53:22;100858.75;;;22.24;100.00
51460;BME280;37534;39.772;2.718;2022-09-17T05:55:48;100872.09;;;22.33;100.00
51460;BME280;37534;39.772;2.718;2022-09-17T05:58:16;100883.75;;;22.29;100.00
51460;BME280;37534;39.772;2.718;2022-09-17T06:00:44;100883.88;;;22.28;100.00
51460;BME280;37534;39.772;2.718;2022-09-17T06:03:12;100877.47;;;22.32;100.00
51460;BME280;37534;39.772;2.718;2022-09-17T06:05:39;100869.41;;;22.46;100.00
51460;BME280;37534;39.772;2.718;2022-09-17T06:08:05;100874.50;;;22.72;100.00
51460;BME280;37534;39.772;2.718;2022-09-17T06:10:31;100874.06;;;22.78;100.00
51460;BME280;37534;39.772;2.718;2022-09-17T06:12:58;100880.31;;;22.88;100.00
51460;BME280;37534;39.772;2.718;2022-09-17T06:15:25;100892.81;;;23.09;100.00
51460;BME280;37534;39.772;2.718;2022-09-17T06:17:51;100897.28;;;23.31;100.00
51460;BME280;37534;39.772;2.718;2022-09-17T06:20:18;100890.47;;;23.51;100.00
51460;BME280;37534;39.772;2.718;2022-09-17T06:22:43;100889.03;;;23.69;100.00
51460;BME280;37534;39.772;2.718;2022-09-17T06:25:09;100892.03;;;23.87;100.00
51460;BME280;37534;39.772;2.718;2022-09-17T06:27:34;100881.59;;;23.97;100.00
51460;BME280;37534;39.772;2.718;2022-09-17T06:30:01;100892.34;;;24.17;100.00
51460;BME280;37534;39.772;2.718;2022-09-17T06:32:27;100892.53;;;24.25;100.00
51460;BME280;37534;39.772;2.718;2022-09-17T06:34:53;100901.72;;;24.42;100.00
51460;BME280;37534;39.772;2.718;2022-09-17T06:37:25;100904.44;;;24.52;100.00
51460;BME280;37534;39.772;2.718;2022-09-17T06:39:51;100900.63;;;24.56;100.00
51460;BME280;37534;39.772;2.718;2022-09-17T06:42:17;100911.91;;;24.58;100.00
51460;BME280;37534;39.772;2.718;2022-09-17T06:44:42;100914.03;;;24.64;100.00
51460;BME280;37534;39.772;2.718;2022-09-17T06:47:08;100922.59;;;24.77;99.92
51460;BME280;37534;39.772;2.718;2022-09-17T06:49:33;100915.91;;;24.73;100.00
51460;BME280;37534;39.772;2.718;2022-09-17T06:51:59;100912.69;;;24.70;100.00
51460;BME280;37534;39.772;2.718;2022-09-17T06:54:24;100912.25;;;24.85;97.97
51460;BME280;37534;39.772;2.718;2022-09-17T06:56:50;100912.69;;;24.91;96.97
51460;BME280;37534;39.772;2.718;2022-09-17T06:59:15;100911.38;;;24.96;96.31
51460;BME280;37534;39.772;2.718;2022-09-17T07:01:43;100914.00;;;24.96;96.51
51460;BME280;37534;39.772;2.718;2022-09-17T07:04:09;100899.94;;;24.96;96.54
51460;BME280;37534;39.772;2.718;2022-09-17T07:06:34;100916.25;;;25.01;96.66
51460;BME280;37534;39.772;2.718;2022-09-17T07:09:00;100918.44;;;24.96;96.11
51460;BME280;37534;39.772;2.718;2022-09-17T07:11:25;100928.72;;;24.99;96.07
51460;BME280;37534;39.772;2.718;2022-09-17T07:13:51;100913.44;;;24.93;95.93
51460;BME280;37534;39.772;2.718;2022-09-17T07:16:16;100915.72;;;24.86;94.74
51460;BME280;37534;39.772;2.718;2022-09-17T07:18:42;100912.06;;;24.77;95.66
51460;BME280;37534;39.772;2.718;2022-09-17T07:21:08;100902.50;;;24.65;95.83
51460;BME280;37534;39.772;2.718;2022-09-17T07:23:36;100906.69;;;24.67;95.41
51460;BME280;37534;39.772;2.718;2022-09-17T07:26:07;100924.09;;;24.70;95.81
51460;BME280;37534;39.772;2.718;2022-09-17T07:28:38;100923.16;;;24.60;97.18
51460;BME280;37534;39.772;2.718;2022-09-17T07:31:04;100905.44;;;25.04;91.86
51460;BME280;37534;39.772;2.718;2022-09-17T07:33:30;100925.38;;;26.01;87.03
51460;BME280;37534;39.772;2.718;2022-09-17T07:35:57;100918.53;;;26.97;78.78
51460;BME280;37534;39.772;2.718;2022-09-17T07:38:24;100928.25;;;27.63;73.30
51460;BME280;37534;39.772;2.718;2022-09-17T07:41:00;100912.41;;;28.73;67.32
51460;BME280;37534;39.772;2.718;2022-09-17T07:43:27;100927.44;;;29.34;64.85
51460;BME280;37534;39.772;2.718;2022-09-17T07:45:56;100907.66;;;29.71;62.22
51460;BME280;37534;39.772;2.718;2022-09-17T07:48:22;100949.25;;;29.72;61.58
51460;BME280;37534;39.772;2.718;2022-09-17T07:50:48;100932.03;;;30.60;58.44
51460;BME280;37534;39.772;2.718;2022-09-17T07:53:14;100956.66;;;31.84;54.88
51460;BME280;37534;39.772;2.718;2022-09-17T07:55:40;100956.34;;;32.42;51.45
51460;BME280;37534;39.772;2.718;2022-09-17T07:58:05;100957.41;;;31.70;52.80
51460;BME280;37534;39.772;2.718;2022-09-17T08:00:31;100953.34;;;31.01;55.85
51460;BME280;37534;39.772;2.718;2022-09-17T08:02:57;100960.16;;;30.79;57.99
51460;BME280;37534;39.772;2.718;2022-09-17T08:05:23;100962.13;;;30.44;59.43
51460;BME280;37534;39.772;2.718;2022-09-17T08:07:53;100962.34;;;30.08;59.16
51460;BME280;37534;39.772;2.718;2022-09-17T08:10:20;100983.88;;;29.10;63.45
51460;BME280;37534;39.772;2.718;2022-09-17T08:12:48;100964.13;;;27.85;68.52
51460;BME280;37534;39.772;2.718;2022-09-17T08:15:17;100953.88;;;27.16;72.72
51460;BME280;37534;39.772;2.718;2022-09-17T08:17:44;100977.25;;;26.42;77.58
51460;BME280;37534;39.772;2.718;2022-09-17T08:20:11;100993.22;;;26.81;77.02
51460;BME280;37534;39.772;2.718;2022-09-17T08:22:37;100989.22;;;27.63;71.82
51460;BME280;37534;39.772;2.718;2022-09-17T08:25:04;100970.84;;;28.17;69.32
51460;BME280;37534;39.772;2.718;2022-09-17T08:27:30;100999.88;;;28.19;68.99
51460;BME280;37534;39.772;2.718;2022-09-17T08:29:56;101005.06;;;28.38;68.04
51460;BME280;37534;39.772;2.718;2022-09-17T08:32:22;100999.13;;;28.90;64.38
51460;BME280;37534;39.772;2.718;2022-09-17T08:34:47;101011.28;;;29.29;65.07
51460;BME280;37534;39.772;2.718;2022-09-17T08:37:13;101011.59;;;30.12;60.45
51460;BME280;37534;39.772;2.718;2022-09-17T08:39:38;101004.56;;;30.03;59.81
51460;BME280;37534;39.772;2.718;2022-09-17T08:42:11;101010.97;;;29.32;62.50
51460;BME280;37534;39.772;2.718;2022-09-17T08:44:42;101002.63;;;30.22;60.44
51460;BME280;37534;39.772;2.718;2022-09-17T08:47:35;100996.84;;;30.26;60.00
51460;BME280;37534;39.772;2.718;2022-09-17T08:50:03;100998.00;;;30.24;58.80
51460;BME280;37534;39.772;2.718;2022-09-17T08:56:12;101009.03;;;29.68;61.81
51460;BME280;37534;39.772;2.718;2022-09-17T08:58:36;100996.00;;;29.83;61.07
51460;BME280;37534;39.772;2.718;2022-09-17T09:03:45;101004.50;;;29.87;62.10
51460;BME280;37534;39.772;2.718;2022-09-17T09:06:14;100993.50;;;29.82;61.77
51460;BME280;37534;39.772;2.718;2022-09-17T09:08:48;100995.00;;;30.19;60.37
51460;BME280;37534;39.772;2.718;2022-09-17T09:11:26;101004.09;;;30.50;58.17
51460;BME280;37534;39.772;2.718;2022-09-17T09:13:56;101008.56;;;30.66;57.77
51460;BME280;37534;39.772;2.718;2022-09-17T09:16:29;100993.44;;;31.41;54.74
51460;BME280;37534;39.772;2.718;2022-09-17T09:19:21;101006.97;;;31.06;55.42
51460;BME280;37534;39.772;2.718;2022-09-17T09:22:00;101000.09;;;30.87;55.85
51460;BME280;37534;39.772;2.718;2022-09-17T09:24:36;101009.06;;;30.45;56.77
51460;BME280;37534;39.772;2.718;2022-09-17T09:27:16;101018.75;;;30.71;57.06
51460;BME280;37534;39.772;2.718;2022-09-17T09:35:25;101014.13;;;28.45;63.22
51460;BME280;37534;39.772;2.718;2022-09-17T09:37:56;101024.25;;;28.32;63.56
51460;BME280;37534;39.772;2.718;2022-09-17T09:43:33;101026.47;;;28.82;61.08
51460;BME280;37534;39.772;2.718;2022-09-17T09:49:28;101021.13;;;29.89;56.00
51460;BME280;37534;39.772;2.718;2022-09-17T09:57:49;101044.88;;;29.38;56.12
51460;BME280;37534;39.772;2.718;2022-09-17T10:00:26;101041.16;;;29.13;57.22
51460;BME280;37534;39.772;2.718;2022-09-17T10:02:58;101044.91;;;29.64;55.95
51460;BME280;37534;39.772;2.718;2022-09-17T10:05:24;101043.41;;;30.22;53.76
51460;BME280;37534;39.772;2.718;2022-09-17T10:07:52;101054.53;;;29.83;53.92
51460;BME280;37534;39.772;2.718;2022-09-17T10:10:17;101044.06;;;29.37;55.20
51460;BME280;37534;39.772;2.718;2022-09-17T10:12:42;101053.66;;;29.56;54.27
51460;BME280;37534;39.772;2.718;2022-09-17T10:15:26;101068.28;;;29.79;53.75
51460;BME280;37534;39.772;2.718;2022-09-17T10:18:16;101065.84;;;29.41;55.31
51460;BME280;37534;39.772;2.718;2022-09-17T10:23:15;101067.94;;;30.08;53.28
51460;BME280;37534;39.772;2.718;2022-09-17T10:25:44;101055.41;;;29.92;53.17
51460;BME280;37534;39.772;2.718;2022-09-17T10:28:34;101060.44;;;30.03;52.19
51460;BME280;37534;39.772;2.718;2022-09-17T10:31:04;101043.50;;;30.04;52.04
51460;BME280;37534;39.772;2.718;2022-09-17T10:33:32;101042.69;;;30.12;51.08
51460;BME280;37534;39.772;2.718;2022-09-17T10:36:01;101034.19;;;30.59;50.32
51460;BME280;37534;39.772;2.718;2022-09-17T10:41:14;101041.31;;;29.29;54.61
51460;BME280;37534;39.772;2.718;2022-09-17T10:43:41;101034.50;;;30.05;52.35
51460;BME280;37534;39.772;2.718;2022-09-17T10:46:30;101029.53;;;30.10;51.30
51460;BME280;37534;39.772;2.718;2022-09-17T10:54:43;101021.44;;;28.61;56.30
51460;BME280;37534;39.772;2.718;2022-09-17T11:00:19;101011.72;;;27.97;59.34
51460;BME280;37534;39.772;2.718;2022-09-17T11:06:13;101023.88;;;28.27;58.62
51460;BME280;37534;39.772;2.718;2022-09-17T11:16:47;101029.38;;;29.77;53.44
51460;BME280;37534;39.772;2.718;2022-09-17T11:22:14;101008.47;;;30.93;48.87
51460;BME280;37534;39.772;2.718;2022-09-17T11:30:07;101027.44;;;30.22;50.36
51460;BME280;37534;39.772;2.718;2022-09-17T11:33:10;101016.63;;;30.24;49.98
51460;BME280;37534;39.772;2.718;2022-09-17T11:36:21;101048.56;;;29.89;51.00
51460;BME280;37534;39.772;2.718;2022-09-17T11:38:54;101026.88;;;29.50;52.43
51460;BME280;37534;39.772;2.718;2022-09-17T11:41:30;101046.25;;;29.68;52.01
51460;BME280;37534;39.772;2.718;2022-09-17T11:44:23;101039.25;;;29.41;53.12
51460;BME280;37534;39.772;2.718;2022-09-17T11:46:56;101034.44;;;29.89;51.81
51460;BME280;37534;39.772;2.718;2022-09-17T11:49:38;101047.25;;;29.67;51.25
51460;BME280;37534;39.772;2.718;2022-09-17T11:52:23;101058.53;;;29.43;53.19
51460;BME280;37534;39.772;2.718;2022-09-17T11:54:58;101055.84;;;29.17;54.26
51460;BME280;37534;39.772;2.718;2022-09-17T11:57:31;101056.03;;;29.42;52.87
51460;BME280;37534;39.772;2.718;2022-09-17T12:02:51;101056.97;;;28.78;55.96
51460;BME280;37534;39.772;2.718;2022-09-17T12:05:25;101082.97;;;28.47;56.50
51460;BME280;37534;39.772;2.718;2022-09-17T12:08:14;101063.25;;;28.22;58.38
51460;BME280;37534;39.772;2.718;2022-09-17T12:13:44;101055.28;;;27.75;60.94
51460;BME280;37534;39.772;2.718;2022-09-17T12:16:27;101045.97;;;27.71;59.15
51460;BME280;37534;39.772;2.718;2022-09-17T12:21:38;101046.00;;;28.08;58.26
51460;BME280;37534;39.772;2.718;2022-09-17T12:27:09;101048.06;;;29.42;53.12
51460;BME280;37534;39.772;2.718;2022-09-17T12:30:02;101047.38;;;29.39;53.04
51460;BME280;37534;39.772;2.718;2022-09-17T12:32:53;101039.00;;;30.05;50.40
51460;BME280;37534;39.772;2.718;2022-09-17T12:46:24;101024.75;;;31.39;46.45
51460;BME280;37534;39.772;2.718;2022-09-17T12:49:27;101021.94;;;32.13;44.20
51460;BME280;37534;39.772;2.718;2022-09-17T13:00:14;101016.59;;;31.40;45.34
51460;BME280;37534;39.772;2.718;2022-09-17T13:03:03;101010.13;;;31.10;45.64
51460;BME280;37534;39.772;2.718;2022-09-17T13:13:48;101001.09;;;31.44;45.00
51460;BME280;37534;39.772;2.718;2022-09-17T13:21:59;101001.75;;;30.64;47.11
51460;BME280;37534;39.772;2.718;2022-09-17T13:24:28;101002.94;;;29.50;51.07
51460;BME280;37534;39.772;2.718;2022-09-17T13:26:56;101010.81;;;29.33;52.74
51460;BME280;37534;39.772;2.718;2022-09-17T13:34:57;101006.63;;;27.66;58.80
51460;BME280;37534;39.772;2.718;2022-09-17T13:37:22;101000.69;;;27.25;60.53
51460;BME280;37534;39.772;2.718;2022-09-17T13:39:49;101013.25;;;27.03;62.42
51460;BME280;37534;39.772;2.718;2022-09-17T13:42:25;101014.38;;;26.91;63.16
51460;BME280;37534;39.772;2.718;2022-09-17T13:45:06;100991.38;;;26.62;63.78
51460;BME280;37534;39.772;2.718;2022-09-17T13:47:37;101004.63;;;26.82;63.60
51460;BME280;37534;39.772;2.718;2022-09-17T13:50:04;101004.63;;;27.40;61.31
51460;BME280;37534;39.772;2.718;2022-09-17T13:52:41;101000.56;;;27.83;59.98
51460;BME280;37534;39.772;2.718;2022-09-17T13:55:33;100992.50;;;28.40;57.90
51460;BME280;37534;39.772;2.718;2022-09-17T13:58:11;100983.81;;;29.72;53.23
51460;BME280;37534;39.772;2.718;2022-09-17T14:19:27;100965.94;;;29.91;52.22
51460;BME280;37534;39.772;2.718;2022-09-17T14:25:00;100973.78;;;31.34;47.21
51460;BME280;37534;39.772;2.718;2022-09-17T14:35:45;100970.88;;;32.16;43.57
51460;BME280;37534;39.772;2.718;2022-09-17T14:38:32;100974.47;;;32.77;42.40
51460;BME280;37534;39.772;2.718;2022-09-17T14:40:59;100983.88;;;32.73;41.54
51460;BME280;37534;39.772;2.718;2022-09-17T14:48:43;100983.81;;;30.74;47.22
51460;BME280;37534;39.772;2.718;2022-09-17T14:53:47;100989.28;;;29.00;52.96
51460;BME280;37534;39.772;2.718;2022-09-17T14:56:18;100981.25;;;28.56;54.35
51460;BME280;37534;39.772;2.718;2022-09-17T14:58:48;100987.16;;;28.22;56.18
51460;BME280;37534;39.772;2.718;2022-09-17T15:01:26;100980.06;;;27.95;57.10
51460;BME280;37534;39.772;2.718;2022-09-17T15:06:37;100977.56;;;27.07;60.32
51460;BME280;37534;39.772;2.718;2022-09-17T15:09:03;100975.63;;;27.00;61.17
51460;BME280;37534;39.772;2.718;2022-09-17T15:11:30;100983.44;;;27.21;61.00
51460;BME280;37534;39.772;2.718;2022-09-17T15:13:56;100985.69;;;27.73;59.25
51460;BME280;37534;39.772;2.718;2022-09-17T15:16:26;100988.72;;;28.15;58.00
51460;BME280;37534;39.772;2.718;2022-09-17T15:18:58;100971.81;;;27.98;56.94
51460;BME280;37534;39.772;2.718;2022-09-17T15:21:35;100982.00;;;27.56;58.39
51460;BME280;37534;39.772;2.718;2022-09-17T15:26:47;100971.75;;;26.94;61.43
51460;BME280;37534;39.772;2.718;2022-09-17T15:29:14;100978.94;;;27.41;60.18
51460;BME280;37534;39.772;2.718;2022-09-17T15:31:40;100970.88;;;27.42;59.73
51460;BME280;37534;39.772;2.718;2022-09-17T15:34:05;100975.47;;;27.21;61.01
51460;BME280;37534;39.772;2.718;2022-09-17T15:36:34;100974.56;;;26.83;62.30
51460;BME280;37534;39.772;2.718;2022-09-17T15:39:30;100992.75;;;26.56;63.27
51460;BME280;37534;39.772;2.718;2022-09-17T15:42:01;100990.16;;;26.26;64.95
51460;BME280;37534;39.772;2.718;2022-09-17T15:44:27;101000.91;;;26.24;65.04
51460;BME280;37534;39.772;2.718;2022-09-17T15:46:52;100999.75;;;26.17;65.70
51460;BME280;37534;39.772;2.718;2022-09-17T15:52:37;100997.63;;;26.11;65.68
51460;BME280;37534;39.772;2.718;2022-09-17T15:55:02;101004.25;;;25.95;66.12
51460;BME280;37534;39.772;2.718;2022-09-17T15:57:29;101008.31;;;25.99;66.92
51460;BME280;37534;39.772;2.718;2022-09-17T16:00:05;101007.28;;;25.91;66.44
51460;BME280;37534;39.772;2.718;2022-09-17T16:02:31;101014.88;;;25.84;66.98
51460;BME280;37534;39.772;2.718;2022-09-17T16:07:46;101012.69;;;25.58;67.92
51460;BME280;37534;39.772;2.718;2022-09-17T16:10:13;101017.53;;;25.53;68.75
51460;BME280;37534;39.772;2.718;2022-09-17T16:12:39;101025.09;;;25.68;68.06
51460;BME280;37534;39.772;2.718;2022-09-17T16:15:06;101013.44;;;25.70;68.01
51460;BME280;37534;39.772;2.718;2022-09-17T16:17:45;101015.19;;;25.39;69.32
51460;BME280;37534;39.772;2.718;2022-09-17T16:20:16;101015.66;;;25.44;69.76